MDT,Max TemperatureF,Mean TemperatureF,Min TemperatureF,Max Dew PointF,MeanDew PointF,Min DewpointF,Max Humidity, Mean Humidity, Min Humidity, Max Sea Level PressureIn, Mean Sea Level PressureIn, Min Sea Level PressureIn, Max VisibilityMiles, Mean VisibilityMiles, Min VisibilityMiles, Max Wind SpeedMPH, Mean Wind SpeedMPH, Max Gust SpeedMPH,PrecipitationIn, CloudCover, Events, WindDirDegrees
2013-6-1,78,56,33,25,12,0,29,17,10,30.29,30.22,30.16,10,10,10,18,7,24,0.00,0,,48
2013-6-2,80,58,37,43,29,18,54,30,15,30.31,30.22,30.09,10,10,4,22,9,46,0.00,1,Thunderstorm,223
2013-6-3,84,64,44,45,30,19,58,32,12,30.18,30.11,30.03,10,10,4,33,9,51,0.00,1,Thunderstorm,284
2013-6-4,84,62,41,30,23,16,39,22,10,30.19,30.13,30.06,10,10,7,21,7,26,0.00,0,,285
2013-6-5,80,61,42,37,30,18,40,28,14,30.20,30.15,30.09,10,10,3,32,12,38,0.00,1,,146
2013-6-6,80,62,44,46,34,27,67,41,16,30.23,30.18,30.09,10,10,4,30,7,38,0.07,1,Thunderstorm,137
2013-6-7,75,58,41,43,38,34,81,48,25,30.26,30.18,30.08,10,10,9,30,8,47,0.01,1,Thunderstorm,54
2013-6-8,82,60,39,43,37,30,76,42,17,30.16,30.09,30.01,10,10,4,23,6,48,0.00,1,Thunderstorm,95
2013-6-9,89,66,44,46,36,25,66,34,10,30.26,30.19,30.14,10,10,10,22,10,26,0.00,0,,335
2013-6-10,93,72,51,45,33,23,54,27,11,30.28,30.21,30.14,10,10,10,25,7,36,0.00,0,,258
2013-6-11,91,71,51,28,24,9,33,17,10,30.29,30.22,30.15,10,10,10,24,10,38,0.00,0,,270
2013-6-12,93,70,48,28,20,9,26,15,10,30.34,30.29,30.21,10,10,9,21,7,25,0.00,0,,332
2013-6-13,87,69,51,46,34,18,55,32,15,30.34,30.29,30.25,10,10,4,29,8,78,0.05,3,Thunderstorm,39
2013-6-14,80,65,50,48,40,34,71,40,22,30.31,30.21,30.11,10,10,2,25,8,36,0.00,1,Thunderstorm,180
2013-6-15,87,66,46,43,33,21,66,33,10,30.31,30.22,30.13,10,10,10,30,7,34,0.00,1,,311
2013-6-16,84,68,53,43,34,27,59,30,14,30.33,30.27,30.18,10,10,3,20,6,38,0.04,1,,238
2013-6-17,84,64,44,43,35,30,66,36,16,30.32,30.26,30.17,10,10,10,30,8,39,0.03,1,Thunderstorm,218
2013-6-18,84,70,57,46,40,30,63,38,16,30.34,30.23,30.12,10,10,10,28,16,33,0.00,2,,192
2013-6-19,87,68,48,41,27,3,50,24,10,30.17,30.10,30.01,10,10,10,26,9,36,0.00,0,,217
2013-6-20,87,66,46,43,23,3,51,20,10,30.21,30.14,30.07,10,10,1,22,9,32,0.00,0,,200
2013-6-21,87,66,44,37,22,7,47,19,10,30.26,30.17,30.09,10,10,10,22,9,36,0.00,0,,230
2013-6-22,84,64,44,25,15,3,25,14,10,30.20,30.14,30.05,10,10,10,24,8,33,0.00,0,,270
2013-6-23,86,64,42,25,15,1,25,14,10,30.18,30.12,30.04,10,10,10,22,9,32,0.00,0,,207
2013-6-24,86,65,44,25,15,1,23,13,9,30.19,30.13,30.07,10,10,7,26,9,38,0.00,0,,272
2013-6-25,87,66,46,27,16,-2,23,14,10,30.24,30.20,30.14,10,10,10,18,7,26,0.00,0,,278
2013-6-26,93,70,46,34,27,19,37,20,10,30.34,30.28,30.22,10,10,10,14,5,23,0.00,0,,26
2013-6-27,95,74,53,34,29,23,33,20,10,30.43,30.37,30.31,10,10,9,29,8,36,0.00,0,Thunderstorm,53
2013-6-28,87,72,55,48,42,28,51,34,18,30.49,30.45,30.40,10,10,3,32,10,43,0.00,1,,105
2013-6-29,89,68,48,52,41,36,66,41,16,30.44,30.38,30.31,10,10,9,25,6,28,0.05,1,Thunderstorm,49
2013-6-30,87,66,44,54,44,36,88,53,19,30.43,30.33,30.21,10,10,9,30,6,37,0.21,2,Thunderstorm,12